Time;durP1;ratioP1;P1;durP2;ratioP2;P2;SDS_P1;SDS_P2;PMS_P1;PMS_P2;Temp;Humidity;BMP_temperature;BMP_pressure;BME280_temperature;BME280_humidity;BME280_pressure;Samples;Min_cycle;Max_cycle;Signal;HPM_P1;HPM_P2
2023/07/06 00:00:14;;;;;;;25.02;16.38;;;;;;;13.54;100.00;101429.63;4986106;28;20054;-70
2023/07/06 00:02:39;;;;;;;23.52;16.40;;;;;;;13.55;100.00;101438.81;4973590;28;20063;-69
2023/07/06 00:05:06;;;;;;;23.90;17.08;;;;;;;13.53;100.00;101435.50;5012073;28;20030;-71
2023/07/06 00:07:31;;;;;;;23.42;15.88;;;;;;;13.52;100.00;101440.22;5012027;28;20112;-70
2023/07/06 00:09:58;;;;;;;23.45;16.10;;;;;;;13.51;100.00;101435.81;4993114;28;20390;-69
2023/07/06 00:12:23;;;;;;;22.27;16.42;;;;;;;13.46;100.00;101438.72;4992151;28;20164;-68
2023/07/06 00:14:50;;;;;;;23.88;16.77;;;;;;;13.43;100.00;101439.31;4986509;28;20057;-69
2023/07/06 00:17:19;;;;;;;24.88;16.45;;;;;;;13.38;100.00;101439.41;4987764;28;20122;-68
2023/07/06 00:19:47;;;;;;;22.52;15.77;;;;;;;13.35;100.00;101440.88;5006425;28;20038;-68
2023/07/06 00:22:13;;;;;;;21.92;15.70;;;;;;;13.33;100.00;101442.28;5013327;28;20514;-70
2023/07/06 00:24:46;;;;;;;25.13;16.67;;;;;;;13.27;100.00;101436.03;5012034;28;20624;-69
2023/07/06 00:27:15;;;;;;;23.95;15.90;;;;;;;13.25;100.00;101441.06;5016074;28;20029;-70
2023/07/06 00:29:55;;;;;;;21.98;15.45;;;;;;;13.23;100.00;101435.00;5014278;28;20053;-69
2023/07/06 00:32:28;;;;;;;21.00;15.55;;;;;;;13.17;100.00;101431.50;5015531;28;20482;-69
2023/07/06 00:34:55;;;;;;;22.33;15.35;;;;;;;13.16;100.00;101445.72;4997847;28;20030;-69
2023/07/06 00:37:21;;;;;;;21.98;15.18;;;;;;;13.10;100.00;101447.75;4995775;28;20394;-69
2023/07/06 00:39:48;;;;;;;21.60;14.50;;;;;;;13.11;100.00;101441.09;5010739;28;20083;-69
2023/07/06 00:42:15;;;;;;;21.33;14.48;;;;;;;13.06;100.00;101444.78;5015386;28;20054;-69
2023/07/06 00:44:47;;;;;;;20.50;14.48;;;;;;;13.05;100.00;101445.91;5002355;28;20092;-69
2023/07/06 00:47:13;;;;;;;22.90;14.27;;;;;;;13.05;100.00;101445.06;4977005;28;20082;-68
2023/07/06 00:49:40;;;;;;;20.67;13.85;;;;;;;13.03;100.00;101447.34;5002328;28;20069;-68
2023/07/06 00:52:07;;;;;;;21.63;13.55;;;;;;;13.00;100.00;101445.19;4995949;28;20471;-71
2023/07/06 00:54:37;;;;;;;22.73;14.00;;;;;;;12.95;100.00;101437.78;4995352;28;20057;-68
2023/07/06 00:57:03;;;;;;;23.63;14.15;;;;;;;12.95;100.00;101444.16;4995186;28;20049;-69
2023/07/06 00:59:32;;;;;;;21.50;14.15;;;;;;;12.91;100.00;101437.56;5007435;28;20141;-69
2023/07/06 01:02:02;;;;;;;22.20;14.85;;;;;;;12.89;100.00;101445.38;4993102;28;20168;-69
2023/07/06 01:04:30;;;;;;;21.13;13.95;;;;;;;12.86;100.00;101437.66;4995468;28;20482;-69
2023/07/06 01:06:56;;;;;;;20.90;13.90;;;;;;;12.86;100.00;101436.84;4995156;28;20026;-70
2023/07/06 01:09:24;;;;;;;22.55;13.95;;;;;;;12.88;100.00;101440.97;4995623;28;20113;-70
2023/07/06 01:11:49;;;;;;;21.45;14.15;;;;;;;12.83;100.00;101438.28;4995131;28;20035;-69
2023/07/06 01:14:15;;;;;;;19.90;13.50;;;;;;;12.81;100.00;101435.00;5000724;28;20075;-70
2023/07/06 01:17:09;;;;;;;;;;;;;;;;;;;;;
2023/07/06 01:20:23;;;;;;;21.63;14.05;;;;;;;12.69;100.00;101437.44;5010251;28;20028;-69
2023/07/06 01:23:26;;;;;;;20.48;13.88;;;;;;;12.66;100.00;101435.28;4984361;28;20030;-70
2023/07/06 01:26:05;;;;;;;21.83;13.68;;;;;;;12.57;100.00;101438.75;5029874;28;20034;-69
2023/07/06 01:29:07;;;;;;;22.88;14.02;;;;;;;12.54;100.00;101439.38;4998184;28;20394;-69
2023/07/06 01:31:55;;;;;;;20.75;14.75;;;;;;;12.46;100.00;101442.84;5009510;28;20052;-69
2023/07/06 01:34:53;;;;;;;20.67;13.27;;;;;;;12.46;100.00;101440.88;5014384;28;20493;-69
2023/07/06 01:37:43;;;;;;;21.20;13.75;;;;;;;12.39;100.00;101445.19;5013859;28;20054;-69
2023/07/06 01:40:10;;;;;;;22.00;14.00;;;;;;;12.37;100.00;101441.91;5014007;28;20038;-69
2023/07/06 01:42:38;;;;;;;22.60;13.57;;;;;;;12.30;100.00;101432.00;4995750;28;20026;-69
2023/07/06 01:45:08;;;;;;;20.10;13.52;;;;;;;12.29;100.00;101438.69;4994058;28;20057;-69
2023/07/06 01:47:41;;;;;;;21.15;13.20;;;;;;;12.21;100.00;101427.47;5005515;28;20026;-69
2023/07/06 01:50:11;;;;;;;20.98;13.82;;;;;;;12.22;100.00;101438.25;4978574;28;20486;-69
2023/07/06 01:53:04;;;;;;;20.42;13.40;;;;;;;12.17;100.00;101432.81;4994755;28;20042;-69
2023/07/06 01:55:44;;;;;;;22.15;13.68;;;;;;;12.12;100.00;101439.25;4980815;28;20042;-69
2023/07/06 01:58:23;;;;;;;21.45;13.65;;;;;;;12.09;100.00;101445.41;4994062;28;20140;-69
2023/07/06 02:00:55;;;;;;;20.10;13.68;;;;;;;12.04;100.00;101441.88;4994203;28;20041;-69
2023/07/06 02:03:24;;;;;;;20.98;12.38;;;;;;;12.02;100.00;101445.78;4992416;28;20074;-69
2023/07/06 02:05:51;;;;;;;19.25;13.00;;;;;;;11.94;100.00;101446.41;4993533;28;20413;-70
2023/07/06 02:08:18;;;;;;;20.42;13.10;;;;;;;11.97;100.00;101442.22;4993761;28;20037;-69
2023/07/06 02:10:44;;;;;;;21.17;13.07;;;;;;;11.94;100.00;101443.66;5000840;28;20049;-69
2023/07/06 02:13:09;;;;;;;22.13;14.10;;;;;;;11.90;100.00;101437.06;5012562;28;20026;-69
2023/07/06 02:15:35;;;;;;;20.17;12.95;;;;;;;11.88;100.00;101439.31;4988171;28;20073;-70
2023/07/06 02:18:02;;;;;;;19.92;13.45;;;;;;;11.86;100.00;101449.88;4995461;28;20100;-70
2023/07/06 02:20:27;;;;;;;20.80;13.05;;;;;;;11.83;100.00;101440.22;5011425;28;20030;-70
2023/07/06 02:22:53;;;;;;;23.17;12.95;;;;;;;11.83;100.00;101442.16;5012941;28;20390;-70
2023/07/06 02:25:20;;;;;;;20.35;13.45;;;;;;;11.82;100.00;101441.34;5012738;28;20034;-69
2023/07/06 02:27:46;;;;;;;20.23;12.82;;;;;;;11.80;100.00;101437.22;5013186;28;20038;-69
2023/07/06 02:30:12;;;;;;;19.73;12.35;;;;;;;11.79;100.00;101441.13;5011005;28;20056;-69
2023/07/06 02:32:39;;;;;;;21.30;13.38;;;;;;;11.76;100.00;101436.16;4993647;28;20482;-69
2023/07/06 02:35:06;;;;;;;19.60;13.23;;;;;;;11.71;100.00;101432.34;4993246;28;20031;-69
2023/07/06 02:37:31;;;;;;;20.15;13.02;;;;;;;11.66;100.00;101428.84;4993154;28;20041;-69
2023/07/06 02:39:58;;;;;;;20.25;12.98;;;;;;;11.63;100.00;101433.00;4993418;28;20122;-69
2023/07/06 02:42:25;;;;;;;21.52;12.70;;;;;;;11.61;100.00;101434.44;4993137;28;20034;-70
2023/07/06 02:44:51;;;;;;;23.13;12.55;;;;;;;11.58;100.00;101435.88;4991196;28;20061;-70
2023/07/06 02:47:16;;;;;;;21.70;13.27;;;;;;;11.56;100.00;101429.78;5007179;28;20065;-70
2023/07/06 02:49:42;;;;;;;21.25;13.20;;;;;;;11.55;100.00;101433.69;5005970;28;20072;-70
2023/07/06 02:52:07;;;;;;;19.65;12.75;;;;;;;11.54;100.00;101437.56;4991529;28;20065;-70
2023/07/06 02:54:32;;;;;;;21.30;13.05;;;;;;;11.54;100.00;101429.25;4992968;28;20034;-69
2023/07/06 02:57:00;;;;;;;20.70;12.55;;;;;;;11.54;100.00;101440.34;4992760;28;20034;-69
2023/07/06 02:59:32;;;;;;;20.45;13.15;;;;;;;11.52;100.00;101437.88;4993091;28;20026;-70
2023/07/06 03:02:00;;;;;;;22.05;13.98;;;;;;;11.54;100.00;101434.81;4992964;28;20370;-69
2023/07/06 03:04:27;;;;;;;20.20;12.30;;;;;;;11.52;100.00;101437.06;4992754;28;20030;-70
2023/07/06 03:06:55;;;;;;;21.25;12.90;;;;;;;11.54;100.00;101443.97;4992964;28;20033;-69
2023/07/06 03:09:22;;;;;;;23.38;12.75;;;;;;;11.55;100.00;101444.75;4988281;28;20030;-68
2023/07/06 03:11:49;;;;;;;20.42;12.73;;;;;;;11.56;100.00;101435.34;4985717;28;20130;-69
2023/07/06 03:14:15;;;;;;;20.02;13.13;;;;;;;11.60;100.00;101439.16;4991686;28;20045;-69
2023/07/06 03:16:40;;;;;;;21.30;13.00;;;;;;;11.56;100.00;101435.34;5002297;28;20027;-68
2023/07/06 03:19:10;;;;;;;23.42;13.27;;;;;;;11.59;100.00;101443.06;5011686;28;20520;-68
2023/07/06 03:21:38;;;;;;;22.33;13.00;;;;;;;11.58;100.00;101438.63;5011827;28;20041;-67
2023/07/06 03:24:06;;;;;;;21.45;14.00;;;;;;;11.66;100.00;101448.25;5010310;28;20065;-69
2023/07/06 03:26:34;;;;;;;20.23;13.35;;;;;;;11.68;100.00;101455.13;4995072;28;20104;-69
2023/07/06 03:29:00;;;;;;;22.13;13.27;;;;;;;11.71;100.00;101450.91;4992185;28;20041;-68
2023/07/06 03:31:25;;;;;;;20.67;12.52;;;;;;;11.74;100.00;101453.09;4991427;28;20054;-68
2023/07/06 03:33:51;;;;;;;21.42;12.65;;;;;;;11.76;100.00;101466.66;4991970;28;20041;-71
2023/07/06 03:36:16;;;;;;;21.98;13.13;;;;;;;11.77;100.00;101463.56;4992256;28;20033;-69
2023/07/06 03:38:42;;;;;;;19.73;13.00;;;;;;;11.78;100.00;101461.66;4982696;28;20102;-68
2023/07/06 03:41:08;;;;;;;22.15;13.02;;;;;;;11.76;100.00;101455.56;4982335;28;20106;-69
2023/07/06 03:43:33;;;;;;;21.67;13.32;;;;;;;11.75;100.00;101460.31;4987931;28;20039;-69
2023/07/06 03:45:59;;;;;;;22.38;13.38;;;;;;;11.75;100.00;101460.31;4979195;28;20072;-68
2023/07/06 03:48:26;;;;;;;21.70;13.90;;;;;;;11.78;100.00;101470.78;4988761;28;20158;-69
2023/07/06 03:50:52;;;;;;;20.10;13.85;;;;;;;11.77;100.00;101468.31;4989873;28;20154;-68
2023/07/06 03:53:21;;;;;;;23.05;13.20;;;;;;;11.78;100.00;101469.97;4991965;28;20490;-68
2023/07/06 03:55:51;;;;;;;24.92;13.35;;;;;;;11.79;100.00;101468.84;4998081;28;20073;-69
2023/07/06 03:58:20;;;;;;;20.33;12.77;;;;;;;11.80;100.00;101470.50;4998623;28;20030;-69
2023/07/06 04:00:47;;;;;;;20.80;12.25;;;;;;;11.83;100.00;101481.81;4998907;28;20023;-70
2023/07/06 04:03:12;;;;;;;21.05;12.82;;;;;;;11.82;100.00;101471.84;4999017;28;20022;-70
2023/07/06 04:05:43;;;;;;;23.50;12.18;;;;;;;11.77;100.00;101468.31;4998739;28;20025;-70
2023/07/06 04:08:12;;;;;;;23.33;12.38;;;;;;;11.85;100.00;101478.72;4998411;28;20541;-69
2023/07/06 04:10:39;;;;;;;21.80;12.10;;;;;;;11.87;100.00;101479.25;4998564;28;20027;-70
2023/07/06 04:13:04;;;;;;;21.02;12.65;;;;;;;11.85;100.00;101479.53;4998779;28;20061;-70
2023/07/06 04:15:31;;;;;;;21.05;11.75;;;;;;;11.89;100.00;101478.94;4996867;28;20018;-70
2023/07/06 04:17:56;;;;;;;20.73;13.13;;;;;;;11.91;100.00;101488.59;4989924;28;20038;-70
2023/07/06 04:20:24;;;;;;;21.90;12.65;;;;;;;11.88;100.00;101491.16;4978887;28;20023;-70
2023/07/06 04:22:54;;;;;;;22.30;12.55;;;;;;;11.88;100.00;101477.28;4998004;28;20062;-70
2023/07/06 04:25:22;;;;;;;21.17;12.35;;;;;;;11.93;100.00;101483.59;4988747;28;20035;-70
2023/07/06 04:27:48;;;;;;;21.30;12.18;;;;;;;11.96;100.00;101484.94;5011239;28;20112;-70
2023/07/06 04:30:16;;;;;;;21.42;12.85;;;;;;;11.97;100.00;101489.34;4995616;28;20061;-69
2023/07/06 04:32:48;;;;;;;21.60;12.52;;;;;;;12.02;100.00;101483.78;4996440;28;20038;-70
2023/07/06 04:35:14;;;;;;;22.45;12.45;;;;;;;12.01;100.00;101490.44;4980209;28;20117;-69
2023/07/06 04:37:41;;;;;;;23.40;13.25;;;;;;;12.05;100.00;101485.13;4984126;28;20038;-69
2023/07/06 04:40:11;;;;;;;21.67;13.20;;;;;;;12.07;100.00;101493.97;4989141;28;20077;-69
2023/07/06 04:42:37;;;;;;;24.08;13.52;;;;;;;12.12;100.00;101491.94;4992873;28;20557;-70
2023/07/06 04:45:04;;;;;;;24.50;13.98;;;;;;;12.17;100.00;101496.59;4997701;28;20629;-71
2023/07/06 04:47:29;;;;;;;24.98;13.77;;;;;;;12.22;100.00;101507.59;5001900;28;20053;-70
2023/07/06 04:49:55;;;;;;;22.90;12.45;;;;;;;12.26;100.00;101505.88;4993054;28;20495;-70
2023/07/06 04:52:20;;;;;;;21.58;13.52;;;;;;;12.27;100.00;101501.97;4989931;28;20430;-70
2023/07/06 04:54:48;;;;;;;23.35;15.07;;;;;;;12.33;100.00;101513.78;4995619;28;20022;-69
2023/07/06 04:57:16;;;;;;;24.52;13.50;;;;;;;12.35;100.00;101503.22;4996179;28;20034;-70
2023/07/06 04:59:42;;;;;;;23.15;13.68;;;;;;;12.39;100.00;101507.06;4994005;28;20034;-70
2023/07/06 05:02:07;;;;;;;23.90;13.50;;;;;;;12.43;100.00;101502.53;4989939;28;20478;-69
2023/07/06 05:04:33;;;;;;;22.17;14.02;;;;;;;12.43;100.00;101508.09;4996678;28;20069;-69
2023/07/06 05:06:59;;;;;;;22.27;13.55;;;;;;;12.46;100.00;101509.47;4988264;28;20034;-69
2023/07/06 05:09:24;;;;;;;23.20;14.15;;;;;;;12.55;100.00;101507.63;4993417;28;20018;-68
2023/07/06 05:11:52;;;;;;;22.02;13.57;;;;;;;12.60;100.00;101506.72;4990272;28;20058;-68
2023/07/06 05:14:19;;;;;;;26.05;14.57;;;;;;;12.64;100.00;101513.31;4982247;28;20026;-69
2023/07/06 05:16:45;;;;;;;25.10;14.32;;;;;;;12.71;100.00;101513.72;4981413;28;20494;-69
2023/07/06 05:19:10;;;;;;;25.80;14.85;;;;;;;12.78;100.00;101511.41;4978559;28;20035;-70
2023/07/06 05:21:35;;;;;;;27.90;15.30;;;;;;;12.85;100.00;101516.53;4978614;28;20053;-70
2023/07/06 05:24:01;;;;;;;25.00;14.13;;;;;;;12.96;100.00;101517.19;4988314;28;20089;-69
2023/07/06 05:26:27;;;;;;;23.27;13.77;;;;;;;13.05;100.00;101515.34;4992893;28;20125;-69
2023/07/06 05:28:53;;;;;;;27.45;14.25;;;;;;;13.14;100.00;101514.63;4992327;28;20470;-69
2023/07/06 05:31:19;;;;;;;24.15;14.15;;;;;;;13.26;100.00;101512.19;4982349;28;20046;-69
2023/07/06 05:33:45;;;;;;;24.58;13.90;;;;;;;13.40;100.00;101523.34;4992260;28;20115;-69
2023/07/06 05:36:11;;;;;;;28.88;14.93;;;;;;;13.51;100.00;101521.16;4988769;28;20054;-70
2023/07/06 05:38:36;;;;;;;25.23;15.00;;;;;;;13.67;100.00;101519.69;4993673;28;20057;-69
2023/07/06 05:41:02;;;;;;;28.40;15.85;;;;;;;13.79;100.00;101518.34;4985074;28;20057;-69
2023/07/06 05:43:28;;;;;;;29.02;16.00;;;;;;;13.85;100.00;101522.66;4981197;28;20046;-70
2023/07/06 05:45:54;;;;;;;28.88;17.13;;;;;;;13.88;100.00;101524.81;4988062;28;20031;-70
2023/07/06 05:48:20;;;;;;;28.75;16.92;;;;;;;13.95;100.00;101522.44;4992597;28;20049;-70
2023/07/06 05:50:45;;;;;;;28.20;17.35;;;;;;;13.98;100.00;101529.34;4988827;28;20063;-70
2023/07/06 05:53:11;;;;;;;31.58;18.58;;;;;;;14.03;100.00;101524.47;5001199;28;20030;-71
2023/07/06 05:55:36;;;;;;;29.50;18.70;;;;;;;14.02;100.00;101524.78;4977099;28;20134;-70
2023/07/06 05:58:02;;;;;;;30.67;19.00;;;;;;;14.01;100.00;101534.25;4981151;28;20023;-70
2023/07/06 06:00:32;;;;;;;33.58;20.05;;;;;;;14.02;100.00;101542.31;4979068;28;20446;-70
2023/07/06 06:02:58;;;;;;;33.67;20.42;;;;;;;14.07;100.00;101538.59;4981846;28;20399;-69
2023/07/06 06:05:23;;;;;;;32.60;19.10;;;;;;;14.09;100.00;101543.84;4990335;28;20034;-68
2023/07/06 06:07:49;;;;;;;31.15;19.58;;;;;;;14.12;100.00;101549.59;5001955;28;20498;-69
2023/07/06 06:10:15;;;;;;;33.85;20.52;;;;;;;14.13;100.00;101548.47;4993536;28;20053;-69
2023/07/06 06:12:41;;;;;;;31.55;19.30;;;;;;;14.20;100.00;101545.25;4991501;28;20069;-70
2023/07/06 06:15:10;;;;;;;30.65;19.35;;;;;;;14.23;100.00;101544.59;5009921;28;20458;-71
2023/07/06 06:17:37;;;;;;;31.98;20.30;;;;;;;14.25;100.00;101547.09;4996892;28;20038;-70
2023/07/06 06:20:03;;;;;;;32.10;19.52;;;;;;;14.25;100.00;101547.09;4992772;28;20113;-70
2023/07/06 06:22:28;;;;;;;31.17;18.98;;;;;;;14.34;100.00;101548.00;4992703;28;20185;-70
2023/07/06 06:24:55;;;;;;;33.88;19.38;;;;;;;14.49;100.00;101555.16;4976219;28;20039;-70
2023/07/06 06:27:20;;;;;;;30.35;18.45;;;;;;;14.58;100.00;101563.56;4993228;28;20026;-70
2023/07/06 06:29:46;;;;;;;30.08;18.20;;;;;;;14.65;100.00;101567.56;4979962;28;20097;-70
2023/07/06 06:32:13;;;;;;;32.28;18.48;;;;;;;14.65;100.00;101559.19;4983887;28;20034;-70
2023/07/06 06:34:39;;;;;;;28.60;18.77;;;;;;;14.78;100.00;101574.22;4983350;28;20410;-71
2023/07/06 06:37:05;;;;;;;33.40;19.40;;;;;;;14.82;100.00;101577.19;4991239;28;20092;-70
2023/07/06 06:39:31;;;;;;;28.55;18.90;;;;;;;14.87;100.00;101577.09;4995326;28;20113;-70
2023/07/06 06:41:57;;;;;;;30.48;18.92;;;;;;;14.97;100.00;101575.97;4993092;28;20026;-70
2023/07/06 06:44:22;;;;;;;31.38;18.20;;;;;;;15.03;100.00;101577.47;4988825;28;20053;-69
2023/07/06 06:46:48;;;;;;;35.28;18.65;;;;;;;15.08;100.00;101573.75;4990243;28;20086;-70
2023/07/06 06:49:13;;;;;;;32.78;18.17;;;;;;;15.11;100.00;101573.91;4992434;28;20084;-69
2023/07/06 06:51:39;;;;;;;29.77;17.25;;;;;;;15.16;100.00;101591.66;4984397;28;20034;-70
2023/07/06 06:54:05;;;;;;;31.20;17.77;;;;;;;15.22;100.00;101587.59;4991342;28;20062;-69
2023/07/06 06:56:31;;;;;;;53.65;21.10;;;;;;;15.29;100.00;101590.75;4972812;28;20109;-66
2023/07/06 06:58:57;;;;;;;41.70;18.38;;;;;;;15.35;100.00;101589.47;4992411;28;20034;-70
2023/07/06 07:01:23;;;;;;;29.38;17.45;;;;;;;15.48;100.00;101592.47;4991723;28;20493;-68
2023/07/06 07:03:48;;;;;;;27.00;16.38;;;;;;;15.63;100.00;101586.47;4991451;28;20085;-70
2023/07/06 07:06:14;;;;;;;27.17;16.83;;;;;;;15.71;100.00;101587.66;4981264;28;20730;-70
2023/07/06 07:08:45;;;;;;;29.17;16.95;;;;;;;15.81;100.00;101595.72;4987766;28;20034;-69
2023/07/06 07:11:12;;;;;;;27.67;16.88;;;;;;;15.92;100.00;101584.28;4991179;28;20133;-69
2023/07/06 07:13:40;;;;;;;28.75;17.20;;;;;;;16.11;99.57;101604.34;5004794;28;20033;-69
2023/07/06 07:16:10;;;;;;;27.08;18.30;;;;;;;16.05;99.72;101600.06;5010578;28;20490;-68
2023/07/06 07:18:35;;;;;;;29.27;17.48;;;;;;;16.06;98.97;101601.72;4996340;28;20040;-69
2023/07/06 07:21:04;;;;;;;27.75;18.05;;;;;;;16.13;100.00;101599.25;4984197;28;20521;-68
2023/07/06 07:23:35;;;;;;;28.33;18.60;;;;;;;16.21;100.00;101606.81;4987012;28;20032;-68
2023/07/06 07:26:02;;;;;;;28.17;18.73;;;;;;;16.37;100.00;101606.38;4989541;28;20035;-68
2023/07/06 07:28:28;;;;;;;28.33;18.48;;;;;;;16.53;99.72;101609.50;4985543;28;20037;-68
2023/07/06 07:30:56;;;;;;;27.25;18.65;;;;;;;16.61;98.29;101619.84;4970841;28;20565;-69
2023/07/06 07:33:22;;;;;;;28.50;18.75;;;;;;;16.66;97.88;101619.66;4982068;28;20038;-70
2023/07/06 07:35:48;;;;;;;26.85;17.50;;;;;;;16.65;95.58;101617.22;4986714;28;20101;-70
2023/07/06 07:38:16;;;;;;;26.73;17.27;;;;;;;16.65;95.18;101633.97;5003625;28;20129;-69
2023/07/06 07:40:52;;;;;;;28.02;19.23;;;;;;;16.64;96.56;101621.16;4982455;28;20086;-69
2023/07/06 07:43:17;;;;;;;25.45;18.48;;;;;;;16.79;96.11;101622.63;4985973;28;20034;-69
2023/07/06 07:45:43;;;;;;;27.40;18.30;;;;;;;16.84;95.95;101626.06;4982660;28;20049;-68
2023/07/06 07:48:08;;;;;;;26.73;18.98;;;;;;;16.78;95.64;101626.56;4988464;28;20066;-68
2023/07/06 07:50:33;;;;;;;28.35;18.90;;;;;;;16.84;96.61;101626.06;4976891;28;20106;-68
2023/07/06 07:52:59;;;;;;;26.30;19.60;;;;;;;16.92;95.99;101618.00;4982851;28;20122;-68
2023/07/06 07:55:24;;;;;;;30.10;21.67;;;;;;;17.02;95.30;101631.66;4987070;28;20027;-68
2023/07/06 07:57:49;;;;;;;28.13;19.92;;;;;;;17.19;93.96;101639.22;4979420;28;20072;-68
2023/07/06 08:00:15;;;;;;;28.95;20.25;;;;;;;17.22;93.45;101632.94;4982563;28;20027;-68
2023/07/06 08:02:40;;;;;;;30.45;19.10;;;;;;;17.18;93.06;101636.72;4992990;28;20430;-69
2023/07/06 08:05:09;;;;;;;26.58;19.25;;;;;;;17.24;93.50;101632.63;4980713;28;20058;-68
2023/07/06 08:07:34;;;;;;;27.27;20.05;;;;;;;17.35;94.56;101635.88;4991175;28;20441;-68
2023/07/06 08:10:00;;;;;;;28.98;18.90;;;;;;;17.40;93.03;101635.69;4987887;28;20038;-69
2023/07/06 08:12:25;;;;;;;29.27;19.77;;;;;;;17.55;92.65;101635.16;4979722;28;20106;-69
2023/07/06 08:14:51;;;;;;;32.85;20.20;;;;;;;17.60;89.22;101643.34;4990554;28;20536;-69
2023/07/06 08:17:16;;;;;;;29.83;19.63;;;;;;;17.46;90.95;101637.16;4990683;28;20401;-69
2023/07/06 08:19:42;;;;;;;32.47;19.77;;;;;;;17.45;89.53;101644.72;4991127;28;20048;-68
2023/07/06 08:22:07;;;;;;;32.97;20.95;;;;;;;17.34;90.64;101639.81;4989183;28;20041;-68
2023/07/06 08:24:32;;;;;;;26.85;19.98;;;;;;;17.39;91.90;101645.22;4990594;28;20156;-68
2023/07/06 08:26:58;;;;;;;30.48;19.73;;;;;;;17.40;93.11;101644.91;4990456;28;20054;-68
2023/07/06 08:29:24;;;;;;;28.02;19.60;;;;;;;17.57;94.57;101644.00;4990255;28;20038;-69
2023/07/06 08:31:49;;;;;;;27.58;19.17;;;;;;;17.58;90.67;101648.44;4990602;28;20029;-69
2023/07/06 08:34:16;;;;;;;24.88;18.42;;;;;;;17.49;92.24;101652.44;4990205;28;20465;-68
2023/07/06 08:36:43;;;;;;;27.90;19.65;;;;;;;17.59;92.24;101649.28;4990572;28;20038;-69
2023/07/06 08:39:08;;;;;;;30.83;20.15;;;;;;;17.67;89.99;101647.59;4994726;28;20038;-69
2023/07/06 08:41:38;;;;;;;28.75;19.10;;;;;;;17.81;89.79;101656.59;4984284;28;20087;-69
2023/07/06 08:44:07;;;;;;;28.33;19.65;;;;;;;18.00;90.07;101655.41;4984210;28;20043;-70
2023/07/06 08:46:40;;;;;;;29.30;18.45;;;;;;;18.04;89.20;101659.97;4991101;28;20035;-70
2023/07/06 08:49:31;;;;;;;35.08;24.15;;;;;;;18.04;89.37;101661.97;4991235;28;20030;-71
2023/07/06 08:52:03;;;;;;;27.70;19.27;;;;;;;18.12;86.52;101666.69;4993752;28;20066;-69
2023/07/06 08:54:30;;;;;;;31.33;19.33;;;;;;;18.36;87.11;101659.63;5028296;28;20025;-69
2023/07/06 08:56:56;;;;;;;27.42;17.67;;;;;;;18.47;84.81;101665.63;5014437;28;20022;-69
2023/07/06 08:59:25;;;;;;;24.15;16.40;;;;;;;18.53;83.79;101667.91;4996831;28;20023;-70
2023/07/06 09:01:52;;;;;;;24.88;17.80;;;;;;;18.66;83.38;101668.78;4994661;28;20022;-70
2023/07/06 09:04:19;;;;;;;26.27;17.23;;;;;;;18.81;84.45;101660.94;4994605;28;20092;-70
2023/07/06 09:06:53;;;;;;;25.88;17.20;;;;;;;18.89;82.18;101673.25;4994321;28;20041;-70
2023/07/06 09:09:19;;;;;;;30.38;17.75;;;;;;;18.98;79.96;101671.22;4994417;28;20049;-71
2023/07/06 09:11:46;;;;;;;24.30;16.05;;;;;;;18.97;81.77;101670.38;4994365;28;20082;-69
2023/07/06 09:14:16;;;;;;;25.75;17.58;;;;;;;19.04;80.47;101675.44;4994455;28;20100;-70
2023/07/06 09:16:58;;;;;;;23.88;16.50;;;;;;;19.32;80.00;101677.63;4994520;28;20034;-70
2023/07/06 09:19:25;;;;;;;24.33;17.05;;;;;;;19.29;77.98;101675.50;4994261;28;20108;-69
2023/07/06 09:21:54;;;;;;;22.95;15.95;;;;;;;19.35;78.78;101665.72;4994400;28;20117;-70
2023/07/06 09:24:27;;;;;;;25.75;16.80;;;;;;;19.49;79.28;101673.84;4996433;28;20045;-69
2023/07/06 09:26:59;;;;;;;23.42;16.92;;;;;;;19.69;79.13;101666.50;5014220;28;20022;-71
2023/07/06 09:29:31;;;;;;;25.67;16.63;;;;;;;19.82;76.21;101667.31;5013725;28;20109;-70
2023/07/06 09:32:11;;;;;;;24.48;16.30;;;;;;;20.18;76.44;101676.13;5013692;28;20068;-70
2023/07/06 09:34:38;;;;;;;23.90;16.60;;;;;;;20.39;75.90;101670.38;5012210;28;20030;-70
2023/07/06 09:37:04;;;;;;;24.63;15.98;;;;;;;20.67;74.69;101666.78;5013643;28;20034;-70
2023/07/06 09:39:30;;;;;;;25.10;15.90;;;;;;;20.84;74.72;101672.16;5013465;28;20042;-70
2023/07/06 09:41:57;;;;;;;23.08;14.82;;;;;;;20.80;70.78;101673.22;5013572;28;20037;-72
2023/07/06 09:44:30;;;;;;;21.98;15.35;;;;;;;20.65;71.53;101674.75;5013487;28;20045;-70
2023/07/06 09:46:58;;;;;;;23.90;15.55;;;;;;;20.55;71.52;101674.06;5013699;28;20039;-71
2023/07/06 09:49:31;;;;;;;23.80;14.50;;;;;;;20.52;70.52;101677.59;4992874;28;20039;-72
2023/07/06 09:52:02;;;;;;;19.98;13.63;;;;;;;20.56;68.51;101669.28;4976765;28;20031;-73
2023/07/06 09:55:02;;;;;;;21.50;14.43;;;;;;;20.64;70.00;101682.38;4987339;28;20035;-71
2023/07/06 09:57:32;;;;;;;22.75;14.13;;;;;;;20.75;70.08;101668.66;4964276;28;20526;-74
2023/07/06 10:00:00;;;;;;;22.65;13.30;;;;;;;20.83;68.01;101669.69;4993120;28;20076;-73
2023/07/06 10:02:36;;;;;;;21.20;14.02;;;;;;;20.83;68.49;101664.06;4991817;28;20528;-73
2023/07/06 10:05:27;;;;;;;18.52;12.65;;;;;;;20.94;68.36;101668.03;4991825;28;20042;-71
2023/07/06 10:08:10;;;;;;;20.92;12.10;;;;;;;20.95;67.11;101664.03;4979474;28;20030;-73
2023/07/06 10:10:56;;;;;;;22.73;12.35;;;;;;;20.99;67.64;101681.00;4985293;28;20129;-72
2023/07/06 10:13:43;;;;;;;21.55;12.10;;;;;;;21.07;66.45;101679.19;4986340;28;20041;-71
2023/07/06 10:16:21;;;;;;;21.88;12.32;;;;;;;21.19;65.84;101673.53;4993475;28;20030;-73
2023/07/06 10:18:54;;;;;;;20.90;12.73;;;;;;;21.15;65.83;101664.19;4993289;28;20030;-74
2023/07/06 10:21:36;;;;;;;22.00;11.68;;;;;;;21.20;67.95;101661.09;4975654;28;20041;-71
2023/07/06 10:24:38;;;;;;;20.30;12.07;;;;;;;21.60;67.04;101665.81;4974024;28;20058;-72
2023/07/06 10:27:09;;;;;;;25.23;11.35;;;;;;;21.65;62.51;101659.91;4948719;28;20136;-74
2023/07/06 10:29:46;;;;;;;22.30;11.70;;;;;;;21.75;63.41;101649.28;4992970;28;20046;-74
2023/07/06 10:32:19;;;;;;;22.52;11.52;;;;;;;21.84;62.70;101660.38;4993212;28;20058;-72
2023/07/06 10:35:00;;;;;;;20.00;11.70;;;;;;;22.00;65.85;101655.53;4993104;28;20692;-73
2023/07/06 10:37:27;;;;;;;20.27;10.60;;;;;;;22.08;62.51;101654.50;4993031;28;20037;-71
2023/07/06 10:40:04;;;;;;;19.42;10.95;;;;;;;22.10;62.04;101656.97;4992909;28;20033;-73
2023/07/06 10:42:33;;;;;;;19.55;9.40;;;;;;;21.79;60.08;101661.47;4991729;28;20049;-72
2023/07/06 10:45:02;;;;;;;19.10;10.50;;;;;;;21.40;60.01;101662.03;4991851;28;20122;-70
2023/07/06 10:47:36;;;;;;;18.25;10.85;;;;;;;21.51;61.51;101659.50;4986562;28;20029;-74
2023/07/06 10:50:07;;;;;;;17.65;10.23;;;;;;;21.58;56.80;101653.25;4989443;28;20126;-72
2023/07/06 10:52:37;;;;;;;17.30;10.10;;;;;;;21.61;58.11;101647.75;5006241;28;20034;-71
2023/07/06 10:55:10;;;;;;;18.77;9.80;;;;;;;21.65;58.20;101654.28;4987067;28;20053;-71
2023/07/06 10:57:36;;;;;;;15.32;9.65;;;;;;;21.76;55.79;101645.28;4981857;28;20460;-72
2023/07/06 11:00:15;;;;;;;16.67;8.65;;;;;;;21.72;55.89;101653.66;4994607;28;20096;-71
2023/07/06 11:02:43;;;;;;;15.93;9.02;;;;;;;21.55;55.95;101656.78;4971344;28;20035;-72
2023/07/06 11:05:19;;;;;;;17.70;9.20;;;;;;;21.38;58.33;101652.31;4997584;28;20030;-73
2023/07/06 11:07:50;;;;;;;16.02;8.68;;;;;;;21.07;59.54;101665.97;4990213;28;20784;-70
2023/07/06 11:10:19;;;;;;;18.08;9.60;;;;;;;21.04;57.62;101663.88;4991302;28;20422;-71
2023/07/06 11:13:16;;;;;;;17.75;9.70;;;;;;;21.31;57.73;101664.19;4991096;28;20038;-69
2023/07/06 11:15:44;;;;;;;16.98;9.20;;;;;;;21.59;54.46;101667.00;4991482;28;20027;-70